Ashton, Maryland
Current Conditions -  °F | °C
As of 1:35 PM on Thursday 30 Oct 2014 (Local Time) from KGAI Reporting Station
Overcast Overcast  
Wind Chill: 12°   Ceiling: 6000
Heat Index: 12°   Visibility: 10mi
Dew Point:   Wind: 10mph
Humidity: 54%   Direction: 310°NW
Pressure: 30.07"   Gusts: NA
Location:  39.15°N, 77.01°W
Report Text: KGAI 301735Z 31009KT 10SM OVC060 12/03 A3007 RMK AO1
Loading
Personal Weather Stations






























Interactive Weather Map New forecast layout! Learn more

10-Day Weather Forecast

Advertisements
Track Severe Weather on mobile